createdAt,value
2023-02-06T00:00:24.193Z,14.10
2023-02-06T00:02:53.268Z,13.57
2023-02-06T00:05:20.992Z,13.17
2023-02-06T00:07:49.311Z,11.80
2023-02-06T00:10:18.884Z,10.70
2023-02-06T00:12:46.637Z,10.70
2023-02-06T00:15:14.316Z,10.80
2023-02-06T00:17:43.233Z,10.10
2023-02-06T00:20:13.079Z,10.20
2023-02-06T00:22:41.207Z,10.20
2023-02-06T00:25:09.033Z,9.60
2023-02-06T00:27:36.778Z,9.13
2023-02-06T00:30:05.336Z,9.47
2023-02-06T00:32:33.453Z,9.80
2023-02-06T00:35:01.239Z,8.97
2023-02-06T00:37:30.509Z,9.33
2023-02-06T00:39:58.420Z,9.20
2023-02-06T00:42:26.187Z,8.97
2023-02-06T00:44:53.849Z,8.83
2023-02-06T00:47:22.064Z,9.00
2023-02-06T00:49:49.699Z,9.30
2023-02-06T00:52:17.382Z,9.27
2023-02-06T00:54:48.069Z,8.23
2023-02-06T00:57:17.377Z,9.20
2023-02-06T00:59:45.271Z,9.40
2023-02-06T01:02:13.343Z,9.00
2023-02-06T01:04:41.187Z,8.93
2023-02-06T01:07:09.192Z,7.83
2023-02-06T01:09:38.822Z,9.07
2023-02-06T01:12:08.586Z,8.30
2023-02-06T01:14:36.378Z,8.70
2023-02-06T01:17:04.209Z,8.70
2023-02-06T01:19:31.941Z,9.50
2023-02-06T01:21:59.749Z,9.70
2023-02-06T01:24:27.946Z,10.30
2023-02-06T01:26:55.848Z,10.80
2023-02-06T01:29:25.857Z,11.57
2023-02-06T01:31:53.616Z,9.70
2023-02-06T01:34:21.653Z,9.50
2023-02-06T01:36:49.326Z,10.07
2023-02-06T01:39:17.617Z,10.17
2023-02-06T01:41:45.519Z,9.60
2023-02-06T01:44:15.642Z,9.20
2023-02-06T01:46:46.224Z,8.93
2023-02-06T01:49:17.004Z,9.20
2023-02-06T01:51:45.362Z,7.80
2023-02-06T01:54:13.705Z,8.00
2023-02-06T01:56:42.793Z,8.40
2023-02-06T01:59:10.561Z,8.70
2023-02-06T02:01:39.756Z,8.27
2023-02-06T02:04:10.170Z,9.00
2023-02-06T02:06:42.216Z,8.20
2023-02-06T02:09:09.865Z,8.30
2023-02-06T02:11:38.457Z,8.63
2023-02-06T02:14:08.027Z,8.90
2023-02-06T02:16:40.405Z,8.30
2023-02-06T02:19:32.174Z,8.80
2023-02-06T02:22:09.308Z,8.60
2023-02-06T02:24:55.389Z,9.20
2023-02-06T02:27:35.849Z,9.43
2023-02-06T02:30:24.707Z,10.93
2023-02-06T02:33:01.819Z,11.40
2023-02-06T02:35:32.571Z,11.30
2023-02-06T02:38:10.943Z,11.63
2023-02-06T02:40:44.136Z,11.20
2023-02-06T02:43:16.461Z,10.90
2023-02-06T02:45:47.695Z,10.17
2023-02-06T02:48:16.268Z,9.80
2023-02-06T02:50:45.476Z,9.40
2023-02-06T02:53:15.166Z,9.03
2023-02-06T02:55:42.964Z,9.53
2023-02-06T02:58:13.045Z,9.67
2023-02-06T03:00:44.765Z,7.90
2023-02-06T03:03:13.551Z,8.50
2023-02-06T03:05:44.842Z,9.03
2023-02-06T03:08:17.672Z,8.60
2023-02-06T03:11:14.721Z,9.17
2023-02-06T03:13:45.860Z,8.50
2023-02-06T03:16:14.745Z,10.17
2023-02-06T03:18:44.345Z,9.83
2023-02-06T03:21:14.496Z,9.10
2023-02-06T03:23:44.889Z,8.73
2023-02-06T03:26:14.777Z,9.20
2023-02-06T03:28:44.171Z,8.53
2023-02-06T03:31:14.769Z,8.93
2023-02-06T03:33:46.516Z,8.57
2023-02-06T03:36:17.164Z,8.40
2023-02-06T03:38:47.658Z,8.77
2023-02-06T03:41:16.933Z,8.80
2023-02-06T03:43:48.518Z,8.07
2023-02-06T03:46:16.958Z,8.20
2023-02-06T03:48:46.959Z,8.70
2023-02-06T03:51:17.070Z,8.40
2023-02-06T03:53:46.636Z,7.87
2023-02-06T03:56:20.532Z,8.33
2023-02-06T03:58:48.302Z,8.30
2023-02-06T04:01:16.179Z,8.37
2023-02-06T04:03:44.348Z,8.67
2023-02-06T04:06:11.968Z,7.97
2023-02-06T04:08:40.048Z,8.20
2023-02-06T04:11:07.875Z,7.53
2023-02-06T04:13:36.906Z,7.10
2023-02-06T04:16:04.857Z,6.80
2023-02-06T04:18:33.089Z,6.30
2023-02-06T04:21:03.992Z,6.50
2023-02-06T04:23:32.062Z,6.63
2023-02-06T04:25:59.992Z,6.20
2023-02-06T04:28:28.837Z,6.13
2023-02-06T04:30:58.066Z,6.27
2023-02-06T04:33:26.409Z,6.90
2023-02-06T04:35:54.426Z,7.20
2023-02-06T04:38:22.530Z,7.40
2023-02-06T04:40:50.739Z,7.27
2023-02-06T04:43:18.428Z,6.87
2023-02-06T04:45:47.528Z,7.20
2023-02-06T04:48:17.623Z,7.20
2023-02-06T04:50:49.977Z,8.10
2023-02-06T04:53:17.875Z,8.43
2023-02-06T04:55:45.782Z,7.90
2023-02-06T04:58:14.050Z,7.70
2023-02-06T05:00:41.915Z,8.00
2023-02-06T05:03:09.534Z,7.87
2023-02-06T05:05:39.057Z,8.13
2023-02-06T05:08:07.144Z,8.80
2023-02-06T05:10:34.920Z,8.83
2023-02-06T05:13:03.212Z,9.17
2023-02-06T05:15:30.882Z,8.67
2023-02-06T05:17:58.984Z,9.57
2023-02-06T05:20:26.644Z,8.90
2023-02-06T05:22:57.366Z,10.10
2023-02-06T05:25:25.492Z,10.90
2023-02-06T05:27:53.604Z,11.10
2023-02-06T05:30:21.275Z,12.03
2023-02-06T05:32:49.220Z,10.70
2023-02-06T05:35:17.241Z,12.80
2023-02-06T05:37:45.222Z,13.10
2023-02-06T05:40:14.611Z,11.97
2023-02-06T05:42:42.647Z,12.37
2023-02-06T05:45:10.638Z,11.70
2023-02-06T05:47:38.586Z,12.37
2023-02-06T05:50:07.157Z,13.50
2023-02-06T05:52:34.816Z,14.67
2023-02-06T05:55:02.528Z,14.70
2023-02-06T05:57:31.653Z,14.30
2023-02-06T05:59:59.327Z,13.97
2023-02-06T06:02:27.263Z,15.67
2023-02-06T06:04:55.131Z,14.57
2023-02-06T06:07:23.155Z,15.30
2023-02-06T06:09:51.109Z,15.77
2023-02-06T06:12:18.791Z,15.97
2023-02-06T06:14:47.766Z,16.03
2023-02-06T06:17:15.882Z,16.03
2023-02-06T06:19:43.790Z,17.17
2023-02-06T06:22:11.934Z,16.97
2023-02-06T06:24:39.587Z,17.80
2023-02-06T06:27:10.524Z,18.17
2023-02-06T06:29:38.371Z,17.60
2023-02-06T06:32:07.762Z,18.30
2023-02-06T06:34:35.734Z,19.73
2023-02-06T06:37:03.714Z,19.70
2023-02-06T06:39:31.654Z,20.63
2023-02-06T06:41:59.636Z,20.30
2023-02-06T06:44:27.320Z,20.30
2023-02-06T06:46:55.501Z,21.10
2023-02-06T06:49:24.859Z,20.40
2023-02-06T06:51:53.094Z,23.30
2023-02-06T06:54:22.047Z,22.03
2023-02-06T06:56:49.775Z,24.20
2023-02-06T06:59:17.487Z,22.20
2023-02-06T07:01:45.171Z,23.20
2023-02-06T07:04:12.819Z,24.67
2023-02-06T07:06:42.184Z,22.73
2023-02-06T07:09:10.665Z,22.07
2023-02-06T07:11:38.490Z,23.70
2023-02-06T07:14:06.190Z,25.00
2023-02-06T07:16:33.934Z,22.80
2023-02-06T07:19:01.701Z,24.70
2023-02-06T07:21:29.851Z,23.80
2023-02-06T07:23:59.129Z,25.13
2023-02-06T07:26:27.686Z,26.80
2023-02-06T07:28:55.535Z,25.60
2023-02-06T07:31:23.445Z,26.73
2023-02-06T07:37:03.357Z,24.77
2023-02-06T07:39:33.116Z,26.80
2023-02-06T07:42:01.276Z,28.30
2023-02-06T07:44:42.816Z,29.53
2023-02-06T07:47:10.733Z,27.90
2023-02-06T07:49:38.667Z,30.00
2023-02-06T07:52:07.216Z,27.50
2023-02-06T07:54:36.388Z,28.27
2023-02-06T07:57:04.542Z,28.67
2023-02-06T07:59:32.645Z,29.77
2023-02-06T08:02:01.141Z,28.17
2023-02-06T08:04:35.122Z,31.30
2023-02-06T08:07:03.384Z,30.20
2023-02-06T08:09:31.935Z,32.07
2023-02-06T08:12:01.679Z,32.80
2023-02-06T08:14:29.669Z,34.83
2023-02-06T08:16:57.604Z,35.87
2023-02-06T08:19:25.637Z,34.70
2023-02-06T08:21:53.718Z,34.07
2023-02-06T08:24:21.351Z,35.40
2023-02-06T08:26:49.623Z,35.67
2023-02-06T08:29:18.712Z,35.70
2023-02-06T08:31:46.457Z,35.63
2023-02-06T08:34:17.912Z,35.90
2023-02-06T08:36:45.814Z,36.10
2023-02-06T08:39:14.649Z,36.40
2023-02-06T08:41:43.336Z,35.73
2023-02-06T08:44:12.854Z,39.30
2023-02-06T08:46:42.706Z,35.50
2023-02-06T08:49:12.731Z,36.17
2023-02-06T08:51:40.384Z,39.57
2023-02-06T08:54:10.906Z,35.80
2023-02-06T08:56:38.689Z,35.73
2023-02-06T08:59:07.371Z,37.20
2023-02-06T09:01:36.838Z,34.20
2023-02-06T09:04:07.402Z,37.40
2023-02-06T09:06:35.624Z,39.07
2023-02-06T09:09:04.115Z,35.53
2023-02-06T09:11:31.846Z,36.50
2023-02-06T09:14:00.773Z,35.67
2023-02-06T09:16:29.933Z,34.00
2023-02-06T09:19:01.531Z,34.23
2023-02-06T09:21:32.292Z,35.50
2023-02-06T09:24:00.922Z,34.93
2023-02-06T09:26:29.676Z,32.27
2023-02-06T09:28:58.374Z,33.30
2023-02-06T09:31:26.738Z,30.83
2023-02-06T09:33:55.628Z,32.57
2023-02-06T09:36:24.464Z,33.30
2023-02-06T09:38:56.049Z,33.97
2023-02-06T09:41:29.088Z,32.60
2023-02-06T09:43:59.216Z,33.67
2023-02-06T09:46:28.785Z,34.90
2023-02-06T09:48:57.223Z,33.50
2023-02-06T09:51:30.031Z,35.50
2023-02-06T09:54:05.599Z,33.60
2023-02-06T09:56:37.554Z,33.10
2023-02-06T09:59:11.326Z,31.20
2023-02-06T10:01:40.949Z,31.20
2023-02-06T10:04:19.943Z,32.13
2023-02-06T10:06:50.154Z,31.43
2023-02-06T10:09:21.532Z,29.83
2023-02-06T10:11:52.233Z,30.10
2023-02-06T10:14:23.263Z,31.37
2023-02-06T10:16:52.974Z,32.93
2023-02-06T10:19:23.607Z,33.10
2023-02-06T10:21:53.061Z,34.93
2023-02-06T10:24:28.424Z,32.67
2023-02-06T10:26:57.021Z,31.60
2023-02-06T10:29:26.329Z,30.43
2023-02-06T10:32:01.651Z,29.83
2023-02-06T10:34:44.264Z,29.77
2023-02-06T10:37:19.125Z,27.30
2023-02-06T10:39:54.360Z,27.50
2023-02-06T10:42:25.387Z,28.33
2023-02-06T10:45:01.397Z,28.90
2023-02-06T10:47:39.374Z,27.20
2023-02-06T10:50:12.806Z,27.30
2023-02-06T10:52:41.577Z,29.20
2023-02-06T10:55:17.600Z,29.07
2023-02-06T10:57:46.957Z,28.30
2023-02-06T11:00:20.246Z,30.40
2023-02-06T11:03:06.144Z,30.60
2023-02-06T11:05:35.856Z,30.57
2023-02-06T11:08:09.133Z,31.93
2023-02-06T11:10:38.994Z,31.30
2023-02-06T11:13:08.248Z,33.13
2023-02-06T11:15:38.961Z,34.07
2023-02-06T11:18:08.484Z,34.80
2023-02-06T11:20:37.368Z,36.60
2023-02-06T11:23:16.773Z,36.50
2023-02-06T11:25:47.007Z,36.77
2023-02-06T11:28:18.314Z,37.70
2023-02-06T11:30:55.262Z,39.70
2023-02-06T11:33:27.008Z,38.90
2023-02-06T11:35:55.352Z,39.13
2023-02-06T11:38:24.383Z,38.03
2023-02-06T11:40:58.159Z,39.13
2023-02-06T11:43:26.675Z,42.40
2023-02-06T11:46:06.685Z,39.97
2023-02-06T11:48:36.154Z,38.07
2023-02-06T11:51:04.774Z,39.17
2023-02-06T11:53:34.186Z,37.17
2023-02-06T11:56:05.076Z,38.63
2023-02-06T11:58:33.446Z,37.77
2023-02-06T12:01:02.914Z,39.50
2023-02-06T12:03:34.725Z,39.03
2023-02-06T12:06:05.282Z,36.40
2023-02-06T12:08:39.481Z,36.80
2023-02-06T12:11:13.685Z,36.87
2023-02-06T12:13:45.102Z,36.97
2023-02-06T12:16:15.234Z,36.70
2023-02-06T12:18:45.067Z,35.23
2023-02-06T12:21:15.038Z,33.67
2023-02-06T12:23:44.661Z,35.50
2023-02-06T12:26:15.631Z,31.00
2023-02-06T12:28:50.585Z,34.43
2023-02-06T12:31:20.809Z,32.37
2023-02-06T12:33:52.892Z,33.17
2023-02-06T12:36:25.537Z,33.20
2023-02-06T12:38:57.302Z,34.63
2023-02-06T12:41:39.929Z,33.20
2023-02-06T12:44:13.269Z,30.83
2023-02-06T12:46:41.754Z,33.00
2023-02-06T12:49:13.886Z,34.30
2023-02-06T12:51:46.460Z,35.70
2023-02-06T12:54:16.237Z,32.70
2023-02-06T12:56:46.579Z,32.27
2023-02-06T12:59:41.597Z,31.00
2023-02-06T13:02:20.857Z,32.70
2023-02-06T13:04:49.674Z,30.33
2023-02-06T13:07:18.631Z,33.30
2023-02-06T13:09:49.640Z,30.20
2023-02-06T13:12:22.426Z,33.53
2023-02-06T13:14:52.088Z,30.70
2023-02-06T13:17:21.413Z,30.00
2023-02-06T13:19:54.112Z,32.17
2023-02-06T13:22:23.956Z,33.27
2023-02-06T13:24:52.162Z,30.40
2023-02-06T13:27:26.426Z,30.50
2023-02-06T13:29:54.747Z,30.20
2023-02-06T13:32:42.116Z,30.10
2023-02-06T13:35:27.196Z,31.63
2023-02-06T13:38:12.577Z,28.03
2023-02-06T13:40:40.549Z,27.50
2023-02-06T13:43:15.522Z,28.77
2023-02-06T13:45:45.583Z,31.53
2023-02-06T13:48:29.091Z,28.20
2023-02-06T13:51:17.645Z,27.60
2023-02-06T13:53:57.656Z,26.63
2023-02-06T13:56:35.564Z,26.67
2023-02-06T13:59:07.681Z,27.53
2023-02-06T14:01:35.375Z,25.90
2023-02-06T14:04:08.377Z,23.97
2023-02-06T14:06:49.459Z,26.37
2023-02-06T14:09:31.240Z,25.83
2023-02-06T14:12:21.920Z,25.63
2023-02-06T14:14:56.840Z,26.80
2023-02-06T14:17:32.648Z,26.40
2023-02-06T14:20:06.995Z,24.93
2023-02-06T14:22:37.497Z,24.10
2023-02-06T14:25:20.791Z,24.43
2023-02-06T14:28:18.393Z,24.13
2023-02-06T14:30:53.914Z,23.20
2023-02-06T14:33:28.010Z,22.87
2023-02-06T14:36:04.349Z,24.00
2023-02-06T14:38:44.762Z,25.80
2023-02-06T14:41:12.775Z,24.37
2023-02-06T14:43:41.801Z,24.30
2023-02-06T14:46:13.381Z,21.73
2023-02-06T14:48:44.523Z,21.53
2023-02-06T14:51:20.528Z,22.80
2023-02-06T14:53:52.510Z,23.60
2023-02-06T14:56:25.457Z,23.93
2023-02-06T14:58:53.485Z,23.30
2023-02-06T15:01:24.010Z,21.30
2023-02-06T15:03:54.753Z,21.37
2023-02-06T15:06:33.895Z,20.90
2023-02-06T15:09:02.041Z,21.83
2023-02-06T15:11:32.505Z,22.90
2023-02-06T15:14:01.459Z,24.23
2023-02-06T15:16:30.932Z,22.90
2023-02-06T15:19:12.430Z,23.23
2023-02-06T15:21:41.725Z,24.23
2023-02-06T15:24:15.629Z,24.47
2023-02-06T15:26:46.662Z,24.17
2023-02-06T15:29:18.468Z,24.10
2023-02-06T15:31:50.216Z,23.30
2023-02-06T15:34:19.494Z,24.33
2023-02-06T15:36:47.235Z,25.47
2023-02-06T15:39:15.929Z,24.93
2023-02-06T15:41:45.418Z,24.23
2023-02-06T15:44:17.681Z,25.03
2023-02-06T15:46:48.344Z,23.67
2023-02-06T15:49:20.110Z,25.73
2023-02-06T15:51:53.604Z,24.47
2023-02-06T15:54:22.431Z,25.80
2023-02-06T15:56:51.220Z,25.10
2023-02-06T15:59:23.033Z,26.07
2023-02-06T16:01:51.321Z,24.57
2023-02-06T16:04:24.349Z,25.90
2023-02-06T16:07:00.680Z,25.37
2023-02-06T16:09:29.028Z,24.30
2023-02-06T16:11:57.650Z,25.23
2023-02-06T16:14:53.042Z,24.27
2023-02-06T16:17:28.911Z,25.07
2023-02-06T16:20:00.146Z,23.80
2023-02-06T16:22:29.102Z,26.50
2023-02-06T16:25:13.179Z,25.30
2023-02-06T16:27:44.064Z,24.13
2023-02-06T16:30:21.380Z,24.70
2023-02-06T16:32:49.379Z,23.63
2023-02-06T16:35:19.184Z,23.27
2023-02-06T16:37:49.255Z,23.77
2023-02-06T16:40:18.387Z,24.63
2023-02-06T16:42:47.554Z,23.90
2023-02-06T16:45:18.272Z,24.90
2023-02-06T16:47:46.048Z,23.80
2023-02-06T16:50:14.315Z,24.07
2023-02-06T16:52:48.604Z,23.57
2023-02-06T16:55:17.780Z,22.83
2023-02-06T16:57:46.409Z,25.63
2023-02-06T17:00:19.661Z,24.57
2023-02-06T17:02:47.891Z,22.90
2023-02-06T17:05:15.927Z,23.47
2023-02-06T17:07:45.994Z,23.20
2023-02-06T17:10:14.467Z,23.80
2023-02-06T17:12:44.258Z,24.00
2023-02-06T17:15:13.415Z,22.20
2023-02-06T17:17:41.820Z,21.90
2023-02-06T17:20:18.725Z,21.57
2023-02-06T17:22:50.577Z,21.63
2023-02-06T17:25:18.831Z,20.90
2023-02-06T17:27:46.629Z,21.77
2023-02-06T17:30:17.933Z,21.37
2023-02-06T17:32:45.826Z,21.23
2023-02-06T17:35:13.804Z,21.17
2023-02-06T17:37:41.563Z,21.47
2023-02-06T17:40:12.834Z,24.97
2023-02-06T17:42:40.488Z,23.60
2023-02-06T17:45:08.930Z,22.87
2023-02-06T17:47:36.675Z,25.60
2023-02-06T17:50:04.565Z,25.63
2023-02-06T17:52:32.524Z,24.43
2023-02-06T17:55:00.239Z,23.70
2023-02-06T17:57:30.692Z,24.40
2023-02-06T17:59:58.852Z,24.60
2023-02-06T18:02:26.566Z,22.33
2023-02-06T18:04:54.372Z,23.60
2023-02-06T18:07:22.351Z,24.40
2023-02-06T18:09:50.367Z,23.90
2023-02-06T18:12:18.198Z,22.87
2023-02-06T18:14:47.951Z,22.57
2023-02-06T18:17:15.601Z,22.73
2023-02-06T18:19:44.276Z,22.20
2023-02-06T18:22:13.225Z,23.10
2023-02-06T18:24:41.024Z,23.00
2023-02-06T18:27:09.041Z,22.90
2023-02-06T18:29:48.883Z,24.23
2023-02-06T18:32:19.290Z,23.50
2023-02-06T18:34:47.745Z,23.83
2023-02-06T18:37:15.476Z,24.20
2023-02-06T18:39:43.470Z,24.17
2023-02-06T18:42:29.404Z,22.80
2023-02-06T18:44:57.167Z,23.23
2023-02-06T18:47:26.238Z,25.00
2023-02-06T18:49:54.225Z,22.50
2023-02-06T18:52:21.913Z,22.87
2023-02-06T18:54:49.739Z,23.13
2023-02-06T18:57:17.623Z,21.63
2023-02-06T18:59:45.518Z,22.80
2023-02-06T19:02:13.339Z,23.87
2023-02-06T19:04:42.844Z,24.50
2023-02-06T19:07:11.607Z,27.10
2023-02-06T19:09:39.476Z,25.13
2023-02-06T19:12:09.014Z,24.50
2023-02-06T19:14:36.731Z,24.90
2023-02-06T19:17:04.403Z,26.20
2023-02-06T19:19:32.276Z,24.80
2023-02-06T19:22:01.840Z,26.17
2023-02-06T19:24:31.647Z,24.50
2023-02-06T19:26:59.540Z,25.23
2023-02-06T19:29:35.582Z,25.47
2023-02-06T19:32:05.358Z,24.83
2023-02-06T19:34:35.863Z,26.07
2023-02-06T19:37:06.081Z,26.20
2023-02-06T19:39:35.722Z,25.77
2023-02-06T19:42:06.484Z,27.07
2023-02-06T19:44:35.659Z,34.10
2023-02-06T19:47:03.760Z,29.00
2023-02-06T19:49:31.806Z,26.60
2023-02-06T19:52:00.213Z,24.17
2023-02-06T19:54:29.733Z,22.40
2023-02-06T19:57:00.778Z,23.33
2023-02-06T19:59:29.685Z,23.97
2023-02-06T20:01:58.013Z,23.87
2023-02-06T20:04:26.312Z,25.30
2023-02-06T20:06:55.951Z,27.47
2023-02-06T20:09:24.064Z,26.70
2023-02-06T20:11:53.090Z,27.33
2023-02-06T20:14:21.287Z,27.30
2023-02-06T20:16:49.253Z,55.93
2023-02-06T20:19:18.625Z,43.03
2023-02-06T20:21:47.862Z,43.10
2023-02-06T20:24:18.364Z,34.73
2023-02-06T20:26:46.385Z,38.63
2023-02-06T20:29:19.298Z,55.07
2023-02-06T20:31:47.082Z,37.40
2023-02-06T20:34:14.847Z,31.00
2023-02-06T20:36:43.242Z,23.67
2023-02-06T20:39:12.364Z,25.23
2023-02-06T20:41:40.366Z,25.50
2023-02-06T20:44:08.722Z,26.17
2023-02-06T20:46:37.980Z,24.83
2023-02-06T20:49:09.089Z,24.33
2023-02-06T20:51:36.810Z,23.83
2023-02-06T20:54:04.622Z,26.00
2023-02-06T20:56:32.633Z,24.37
2023-02-06T20:59:00.972Z,25.30
2023-02-06T21:01:30.451Z,25.60
2023-02-06T21:04:02.900Z,26.40
2023-02-06T21:06:31.144Z,26.10
2023-02-06T21:09:00.170Z,23.57
2023-02-06T21:11:29.674Z,24.57
2023-02-06T21:13:58.743Z,25.50
2023-02-06T21:16:28.017Z,25.33
2023-02-06T21:18:56.267Z,26.37
2023-02-06T21:21:26.368Z,25.73
2023-02-06T21:23:55.804Z,25.77
2023-02-06T21:26:24.304Z,25.03
2023-02-06T21:28:52.668Z,25.70
2023-02-06T21:31:22.581Z,26.00
2023-02-06T21:33:51.563Z,25.57
2023-02-06T21:36:21.225Z,26.50
2023-02-06T21:38:50.525Z,27.20
2023-02-06T21:41:19.411Z,28.70
2023-02-06T21:43:47.344Z,25.37
2023-02-06T21:46:15.237Z,25.80
2023-02-06T21:48:43.235Z,25.87
2023-02-06T21:51:12.341Z,28.27
2023-02-06T21:53:40.387Z,23.70
2023-02-06T21:56:10.686Z,24.33
2023-02-06T21:58:38.499Z,25.47
2023-02-06T22:01:08.937Z,27.73
2023-02-06T22:03:37.336Z,26.27
2023-02-06T22:06:09.118Z,28.03
2023-02-06T22:08:37.639Z,26.93
2023-02-06T22:11:12.656Z,28.57
2023-02-06T22:13:40.911Z,28.57
2023-02-06T22:16:08.900Z,28.23
2023-02-06T22:18:36.833Z,30.57
2023-02-06T22:21:05.521Z,29.90
2023-02-06T22:23:33.247Z,30.43
2023-02-06T22:26:00.880Z,28.53
2023-02-06T22:28:32.453Z,29.63
2023-02-06T22:31:05.018Z,26.90
2023-02-06T22:33:33.152Z,27.10
2023-02-06T22:36:00.904Z,26.97
2023-02-06T22:38:28.569Z,26.30
2023-02-06T22:41:00.023Z,26.37
2023-02-06T22:43:27.913Z,27.33
2023-02-06T22:45:57.348Z,26.60
2023-02-06T22:48:25.579Z,25.17
2023-02-06T22:50:53.545Z,26.50
2023-02-06T22:53:32.035Z,27.57
2023-02-06T22:56:22.649Z,26.17
2023-02-06T22:58:50.853Z,25.83
2023-02-06T23:01:21.051Z,24.23
2023-02-06T23:03:51.875Z,23.63
2023-02-06T23:06:19.970Z,23.60
2023-02-06T23:08:47.629Z,23.80
2023-02-06T23:11:16.014Z,25.63
2023-02-06T23:13:43.693Z,25.90
2023-02-06T23:16:11.891Z,23.40
2023-02-06T23:18:41.112Z,24.93
2023-02-06T23:21:10.732Z,28.17
2023-02-06T23:23:38.916Z,23.17
2023-02-06T23:26:10.091Z,21.77
2023-02-06T23:28:38.770Z,23.20
2023-02-06T23:31:06.756Z,23.00
2023-02-06T23:33:35.271Z,23.43
2023-02-06T23:36:05.169Z,23.50
2023-02-06T23:38:35.092Z,24.20
2023-02-06T23:41:08.084Z,24.97
2023-02-06T23:43:36.081Z,25.40
2023-02-06T23:46:04.381Z,25.37
2023-02-06T23:48:32.573Z,26.13
2023-02-06T23:51:00.533Z,26.87
2023-02-06T23:53:30.116Z,25.77
2023-02-06T23:55:59.192Z,24.40
2023-02-06T23:58:26.920Z,23.33
